Time;durP1;ratioP1;P1;durP2;ratioP2;P2;SDS_P1;SDS_P2;PMS_P1;PMS_P2;Temp;Humidity;BMP_temperature;BMP_pressure;BME280_temperature;BME280_humidity;BME280_pressure;Samples;Min_cycle;Max_cycle;Signal;HPM_P1;HPM_P2
2021/01/14 00:00:59;;;;;;;81.60;33.00;;;;;;;0.34;100.00;99174.98;10449976;85;21131;-83
2021/01/14 00:16:04;;;;;;;146.07;50.28;;;;;;;0.38;100.00;99194.50;10379337;83;21187;-83
2021/01/14 00:31:08;;;;;;;91.92;30.00;;;;;;;0.18;100.00;99184.14;10653795;83;21250;-83
2021/01/14 00:46:19;;;;;;;60.92;26.90;;;;;;;0.49;100.00;99203.69;10671002;83;21210;-82
2021/01/14 01:01:23;;;;;;;64.12;28.90;;;;;;;0.60;100.00;99210.74;10672570;83;21627;-83
2021/01/14 01:16:28;;;;;;;104.50;35.28;;;;;;;0.56;100.00;99210.58;10702854;81;21173;-83
2021/01/14 01:31:32;;;;;;;59.13;25.43;;;;;;;0.52;100.00;99231.06;10748720;82;21202;-83
2021/01/14 01:46:36;;;;;;;50.35;21.68;;;;;;;0.58;100.00;99238.87;10783984;82;21190;-84
2021/01/14 02:01:40;;;;;;;81.65;32.73;;;;;;;0.40;100.00;99248.61;10786065;82;21305;-84
2021/01/14 02:16:45;;;;;;;62.58;26.68;;;;;;;0.45;100.00;99266.75;10785111;82;21186;-84
2021/01/14 02:31:56;;;;;;;109.57;40.05;;;;;;;0.42;100.00;99283.72;10783907;82;21195;-84
2021/01/14 02:47:06;;;;;;;79.80;34.60;;;;;;;0.42;100.00;99294.48;10785785;82;21592;-84
2021/01/14 03:02:11;;;;;;;81.07;32.13;;;;;;;0.46;100.00;99299.82;10789052;82;21281;-83
2021/01/14 03:17:15;;;;;;;62.23;27.40;;;;;;;0.43;100.00;99320.19;10790742;82;21288;-84
2021/01/14 03:32:20;;;;;;;70.05;28.25;;;;;;;0.40;100.00;99337.64;10650413;82;21175;-82
2021/01/14 03:47:25;;;;;;;85.03;34.10;;;;;;;0.43;100.00;99346.47;10173319;86;21205;-81
2021/01/14 04:02:32;;;;;;;65.83;29.12;;;;;;;0.36;100.00;99365.38;10467752;85;21194;-82
2021/01/14 04:17:35;;;;;;;;;;;;;;;0.48;100.00;99369.78;10379342;85;21601;-82
2021/01/14 04:32:39;;;;;;;44.77;21.20;;;;;;;0.43;100.00;99381.31;10178960;87;20230;-81
2021/01/14 04:47:48;;;;;;;54.40;25.60;;;;;;;0.44;100.00;99391.53;10692699;82;21163;-82
2021/01/14 05:02:57;;;;;;;57.78;25.80;;;;;;;0.41;100.00;99403.34;10669541;83;21338;-83
2021/01/14 05:18:07;;;;;;;76.75;35.15;;;;;;;0.39;100.00;99427.58;10707784;82;21261;-84
2021/01/14 05:33:18;;;;;;;152.55;68.67;;;;;;;0.25;100.00;99436.13;10756017;82;21138;-83
2021/01/14 05:48:30;;;;;;;114.22;55.20;;;;;;;0.35;100.00;99463.05;10458482;83;21269;-82
2021/01/14 06:03:35;;;;;;;76.65;33.60;;;;;;;0.40;100.00;99468.77;10462357;85;21175;-82
2021/01/14 06:18:40;;;;;;;132.72;66.62;;;;;;;0.18;100.00;99483.85;10423543;84;21171;-82
2021/01/14 06:33:46;;;;;;;294.80;109.87;;;;;;;0.12;100.00;99516.81;10382749;85;21195;-81
2021/01/14 06:49:00;;;;;;;179.90;66.47;;;;;;;-0.04;100.00;99549.09;10595775;82;21659;-83
2021/01/14 07:04:08;;;;;;;133.27;51.98;;;;;;;0.01;100.00;99569.45;10610215;83;21182;-83
2021/01/14 07:19:13;;;;;;;544.90;217.72;;;;;;;0.10;100.00;99578.44;10689129;81;21119;-83
2021/01/14 07:34:36;;;;;;;231.57;80.67;;;;;;;0.08;100.00;99605.61;10719536;82;21245;-79
2021/01/14 07:49:43;;;;;;;263.32;101.00;;;;;;;0.10;100.00;99624.39;10731282;82;21190;-81
2021/01/14 08:04:52;;;;;;;125.38;46.28;;;;;;;0.22;100.00;99659.00;10708110;81;21198;-84
2021/01/14 08:19:58;;;;;;;104.07;42.03;;;;;;;0.30;100.00;99688.26;10754264;82;21648;-81
2021/01/14 08:35:06;;;;;;;263.40;99.67;;;;;;;0.14;100.00;99713.59;10663102;83;21187;-82
2021/01/14 08:50:12;;;;;;;147.28;58.55;;;;;;;0.08;100.00;99733.73;10674933;83;21162;-81
2021/01/14 09:05:18;;;;;;;79.23;32.97;;;;;;;-0.35;100.00;99754.86;10672708;83;21238;-81
2021/01/14 09:20:24;;;;;;;125.37;69.33;;;;;;;0.16;100.00;99783.19;10660356;82;21211;-83
2021/01/14 09:35:28;;;;;;;71.37;32.50;;;;;;;0.33;100.00;99802.94;10670104;83;21203;-82
2021/01/14 09:50:33;;;;;;;110.57;45.38;;;;;;;0.26;100.00;99817.89;10670297;83;21704;-82
2021/01/14 10:05:38;;;;;;;99.65;39.60;;;;;;;0.27;100.00;99840.67;10673436;83;21234;-81
2021/01/14 10:20:42;;;;;;;135.07;49.60;;;;;;;-0.17;100.00;99848.03;10709130;82;21195;-81
2021/01/14 10:35:55;;;;;;;86.20;35.78;;;;;;;0.24;100.00;99880.80;10782392;82;21630;-82
2021/01/14 10:51:00;;;;;;;190.92;70.40;;;;;;;0.30;100.00;99889.09;10787816;82;21228;-81
2021/01/14 11:06:05;;;;;;;71.53;25.43;;;;;;;0.43;100.00;99908.63;10791278;82;21062;-82
2021/01/14 11:21:11;;;;;;;169.15;59.27;;;;;;;0.27;100.00;99911.16;10773839;82;21126;-83
2021/01/14 11:36:19;;;;;;;80.83;31.83;;;;;;;0.09;100.00;99915.53;10786324;82;21221;-82
2021/01/14 11:51:24;;;;;;;96.50;36.65;;;;;;;-0.13;100.00;99936.39;10792099;82;21008;-82
2021/01/14 12:06:28;;;;;;;65.00;28.65;;;;;;;-0.25;100.00;99946.84;10785010;82;22066;-82
2021/01/14 12:21:32;;;;;;;111.92;38.58;;;;;;;-0.68;100.00;99971.61;10751566;81;21820;-81
2021/01/14 12:36:37;;;;;;;417.55;203.77;;;;;;;-0.81;100.00;99997.55;10666119;83;21529;-81
2021/01/14 12:51:42;;;;;;;119.55;39.35;;;;;;;-1.26;100.00;100018.84;10623759;82;21139;-81
2021/01/14 13:06:46;;;;;;;184.37;65.53;;;;;;;-1.74;100.00;100023.42;10684678;82;21063;-80
2021/01/14 13:21:52;;;;;;;176.90;58.05;;;;;;;-1.59;100.00;100054.56;10706604;82;21102;-79
2021/01/14 13:36:56;;;;;;;176.83;65.93;;;;;;;-1.75;100.00;100072.37;10675629;82;21036;-81
2021/01/14 13:52:05;;;;;;;66.97;26.90;;;;;;;-1.74;100.00;100099.73;10715740;83;21100;-85
2021/01/14 14:07:10;;;;;;;84.77;37.00;;;;;;;-1.64;100.00;100111.80;10671937;82;21581;-80
2021/01/14 14:22:14;;;;;;;39.03;16.65;;;;;;;-1.79;100.00;100129.97;10637921;81;21080;-80
2021/01/14 14:37:20;;;;;;;69.47;28.75;;;;;;;-1.91;100.00;100151.40;10628201;82;21384;-79
2021/01/14 14:52:24;;;;;;;125.17;52.83;;;;;;;-2.05;100.00;100165.22;10658528;82;21166;-78
2021/01/14 15:07:29;;;;;;;92.15;34.98;;;;;;;-2.64;100.00;100189.63;10673512;83;21322;-82
2021/01/14 15:22:34;;;;;;;69.35;27.32;;;;;;;-2.91;100.00;100204.63;10677074;82;21103;-80
2021/01/14 15:37:38;;;;;;;79.20;29.63;;;;;;;-3.09;100.00;100213.80;10674927;81;21131;-76
2021/01/14 15:52:46;;;;;;;43.40;16.77;;;;;;;-3.12;100.00;100224.15;10677663;81;21820;-81
2021/01/14 16:07:50;;;;;;;146.85;50.33;;;;;;;-3.23;100.00;100223.67;10657206;83;21079;-81
2021/01/14 16:22:55;;;;;;;157.30;53.42;;;;;;;-3.49;100.00;100228.33;10648569;81;21127;-80
2021/01/14 16:37:59;;;;;;;148.57;56.67;;;;;;;-3.41;100.00;100234.89;10641693;83;21503;-80
2021/01/14 16:53:04;;;;;;;230.20;92.85;;;;;;;-3.22;100.00;100231.74;10572873;83;21038;-77
2021/01/14 17:08:10;;;;;;;839.38;320.12;;;;;;;-3.18;100.00;100229.47;10555601;83;21078;-78
2021/01/14 17:23:16;;;;;;;532.45;170.07;;;;;;;-3.35;100.00;100218.48;10394752;84;21126;-81
2021/01/14 17:38:20;;;;;;;109.60;42.48;;;;;;;-3.35;100.00;100228.29;10684373;83;21115;-81
2021/01/14 17:53:25;;;;;;;481.60;143.75;;;;;;;-3.48;100.00;100239.83;10723538;81;21063;-82
2021/01/14 18:08:31;;;;;;;315.40;90.60;;;;;;;-3.35;100.00;100240.30;10711381;82;21194;-80
2021/01/14 18:23:37;;;;;;;175.63;60.00;;;;;;;-3.41;100.00;100251.56;10651125;82;21130;-82
2021/01/14 18:38:43;;;;;;;94.67;36.65;;;;;;;-3.43;100.00;100269.17;10623604;83;21552;-80
2021/01/14 18:53:47;;;;;;;190.23;64.10;;;;;;;-3.30;100.00;100267.08;10639994;82;21095;-81
2021/01/14 19:08:51;;;;;;;241.93;71.33;;;;;;;-3.31;100.00;100291.91;10686718;81;21071;-81
2021/01/14 19:23:57;;;;;;;168.28;56.20;;;;;;;-3.18;100.00;100300.91;10664742;83;21119;-80
2021/01/14 19:39:11;;;;;;;111.83;39.80;;;;;;;-3.10;100.00;100319.92;10632065;81;21087;-80
2021/01/14 19:54:17;;;;;;;;;;;;;;;-3.06;100.00;100333.48;10623342;82;21087;-80
2021/01/14 20:09:21;;;;;;;103.58;31.07;;;;;;;-3.05;100.00;100342.86;10609131;83;20351;-82
2021/01/14 20:24:26;;;;;;;47.15;21.68;;;;;;;-3.29;100.00;100364.53;10628012;83;21111;-82
2021/01/14 20:39:31;;;;;;;71.07;26.47;;;;;;;-3.28;100.00;100393.16;10678883;81;21116;-83
2021/01/14 20:54:35;;;;;;;52.35;17.50;;;;;;;-3.77;100.00;100399.22;10698107;83;21206;-81
2021/01/14 21:09:39;;;;;;;94.03;29.20;;;;;;;-3.97;100.00;100411.29;10705885;83;21494;-83
2021/01/14 21:24:46;;;;;;;76.40;26.42;;;;;;;-4.43;100.00;100438.88;10476785;84;21080;-81
2021/01/14 21:40:12;;;;;;;200.47;56.23;;;;;;;-4.76;100.00;100469.95;10718088;81;21341;-82
2021/01/14 21:55:26;;;;;;;97.25;32.85;;;;;;;-5.16;100.00;100491.23;10623330;83;21064;-81
2021/01/14 22:10:30;;;;;;;128.00;37.73;;;;;;;-5.73;100.00;100498.23;10692093;82;21040;-81
2021/01/14 22:25:34;;;;;;;92.93;31.20;;;;;;;-6.07;100.00;100509.04;10787099;82;21106;-81
2021/01/14 22:40:38;;;;;;;97.00;30.87;;;;;;;-6.35;100.00;100518.40;10846137;82;21142;-81
2021/01/14 22:55:45;;;;;;;56.17;18.37;;;;;;;-6.45;100.00;100538.13;10841694;81;21170;-81
2021/01/14 23:10:50;;;;;;;80.32;23.02;;;;;;;-6.60;100.00;100557.47;10841713;82;21102;-81
2021/01/14 23:25:54;;;;;;;51.53;14.60;;;;;;;-6.69;100.00;100563.11;10801322;82;21142;-81
2021/01/14 23:40:58;;;;;;;74.17;23.92;;;;;;;-6.81;100.00;100565.79;10717608;83;21100;-81
2021/01/14 23:56:04;;;;;;;52.40;20.03;;;;;;;-6.81;100.00;100566.23;10721953;83;21218;-81
